Time;durP1;ratioP1;P1;durP2;ratioP2;P2;SDS_P1;SDS_P2;PMS_P1;PMS_P2;Temp;Humidity;BMP_temperature;BMP_pressure;BME280_temperature;BME280_humidity;BME280_pressure;Samples;Min_cycle;Max_cycle;Signal;HPM_P1;HPM_P2
2021/08/25 00:00:46;;;;;;;;;;;11.50;99.80;;;;;;5033117;28;19913;-76
2021/08/25 00:03:13;;;;;;;;;;;11.50;99.10;;;;;;5033086;28;19909;-76
2021/08/25 00:05:40;;;;;;;;;;;11.60;99.50;;;;;;5032435;28;19924;-77
2021/08/25 00:08:08;;;;;;;;;;;11.60;99.20;;;;;;5032986;28;19955;-77
2021/08/25 00:10:35;;;;;;;;;;;11.70;99.30;;;;;;5031826;28;19924;-75
2021/08/25 00:13:06;;;;;;;;;;;11.70;99.30;;;;;;5032689;28;19920;-75
2021/08/25 00:15:40;;;;;;;;;;;11.70;99.30;;;;;;5033475;28;19936;-75
2021/08/25 00:18:07;;;;;;;;;;;11.70;98.90;;;;;;5033122;28;19909;-77
2021/08/25 00:20:37;;;;;;;;;;;11.80;99.70;;;;;;5032985;28;19909;-76
2021/08/25 00:23:05;;;;;;;;;;;11.80;99.40;;;;;;5032663;28;20008;-77
2021/08/25 00:25:33;;;;;;;;;;;11.80;99.60;;;;;;5035263;28;20443;-76
2021/08/25 00:28:00;;;;;;;;;;;11.80;98.90;;;;;;5036424;28;19969;-76
2021/08/25 00:30:26;;;;;;;;;;;11.90;99.40;;;;;;5035244;28;19920;-77
2021/08/25 00:32:53;;;;;;;;;;;12.00;99.30;;;;;;5036388;28;19917;-76
2021/08/25 00:35:20;;;;;;;;;;;12.00;99.30;;;;;;5036443;28;19916;-76
2021/08/25 00:37:46;;;;;;;;;;;12.10;99.10;;;;;;5036821;28;19948;-76
2021/08/25 00:40:14;;;;;;;;;;;12.20;99.20;;;;;;5038908;28;19967;-78
2021/08/25 00:42:40;;;;;;;;;;;12.20;98.60;;;;;;5058216;28;19900;-76
2021/08/25 00:45:09;;;;;;;;;;;12.30;98.30;;;;;;5056860;28;19917;-77
2021/08/25 00:47:41;;;;;;;;;;;12.30;98.90;;;;;;5050219;28;19921;-76
2021/08/25 00:50:11;;;;;;;;;;;12.30;98.60;;;;;;5036486;28;19924;-77
2021/08/25 00:52:42;;;;;;;;;;;12.40;99.20;;;;;;5036313;28;20279;-76
2021/08/25 00:55:13;;;;;;;;;;;12.50;98.50;;;;;;5035979;28;19999;-77
2021/08/25 00:57:41;;;;;;;;;;;12.50;98.60;;;;;;5035173;28;19916;-77
2021/08/25 01:00:09;;;;;;;;;;;12.60;98.00;;;;;;5035942;28;19909;-77
2021/08/25 01:02:35;;;;;;;;;;;12.70;97.90;;;;;;5035743;28;19916;-76
2021/08/25 01:05:03;;;;;;;;;;;12.80;97.70;;;;;;5035547;28;19917;-76
2021/08/25 01:07:31;;;;;;;;;;;12.80;97.30;;;;;;5035222;28;19920;-77
2021/08/25 01:09:58;;;;;;;;;;;12.80;97.80;;;;;;5035607;28;19909;-75
2021/08/25 01:12:27;;;;;;;;;;;13.00;97.60;;;;;;5035496;28;19981;-77
2021/08/25 01:14:55;;;;;;;;;;;13.20;97.60;;;;;;5033545;28;19913;-77
2021/08/25 01:17:23;;;;;;;;;;;13.20;96.80;;;;;;5035500;28;20004;-75
2021/08/25 01:19:53;;;;;;;;;;;13.10;97.30;;;;;;5033868;28;19924;-77
2021/08/25 01:22:19;;;;;;;;;;;13.20;97.70;;;;;;5034232;28;20460;-76
2021/08/25 01:24:48;;;;;;;;;;;13.20;97.70;;;;;;5034549;28;19923;-77
2021/08/25 01:27:16;;;;;;;;;;;13.20;97.00;;;;;;5016514;28;19913;-76
2021/08/25 01:29:43;;;;;;;;;;;13.00;97.40;;;;;;5016860;28;20364;-76
2021/08/25 01:32:10;;;;;;;;;;;13.00;98.30;;;;;;5034685;28;20364;-76
2021/08/25 01:34:49;;;;;;;;;;;13.10;97.60;;;;;;5034504;28;19956;-75
2021/08/25 01:37:16;;;;;;;;;;;13.30;97.70;;;;;;5033207;28;19963;-76
2021/08/25 01:39:42;;;;;;;;;;;13.40;97.00;;;;;;5034435;28;20047;-77
2021/08/25 01:42:09;;;;;;;;;;;13.40;97.30;;;;;;5034535;28;19920;-76
2021/08/25 01:44:37;;;;;;;;;;;13.60;97.00;;;;;;5034760;28;19968;-75
2021/08/25 01:47:03;;;;;;;;;;;13.70;97.30;;;;;;5034124;28;20402;-75
2021/08/25 01:49:30;;;;;;;;;;;13.80;96.50;;;;;;5033895;28;20368;-74
2021/08/25 01:51:58;;;;;;;;;;;13.70;96.20;;;;;;5034131;28;19916;-75
2021/08/25 01:54:25;;;;;;;;;;;13.70;96.60;;;;;;5034918;28;19955;-77
2021/08/25 01:56:51;;;;;;;;;;;13.70;96.60;;;;;;5033960;28;19916;-75
2021/08/25 01:59:18;;;;;;;;;;;13.50;96.70;;;;;;5034163;28;20350;-75
2021/08/25 02:01:45;;;;;;;;;;;13.50;97.20;;;;;;5034090;28;19909;-75
2021/08/25 02:04:11;;;;;;;;;;;13.60;96.70;;;;;;5033855;28;19940;-76
2021/08/25 02:06:41;;;;;;;;;;;13.70;97.00;;;;;;5033754;28;19961;-77
2021/08/25 02:09:08;;;;;;;;;;;13.80;97.20;;;;;;5033783;28;20004;-75
2021/08/25 02:11:34;;;;;;;;;;;13.80;96.60;;;;;;5033411;28;19913;-75
2021/08/25 02:14:01;;;;;;;;;;;13.90;96.40;;;;;;5033494;28;19909;-77
2021/08/25 02:16:28;;;;;;;;;;;13.90;96.80;;;;;;5033634;28;19916;-75
2021/08/25 02:18:55;;;;;;;;;;;14.00;96.90;;;;;;5033580;28;19909;-76
2021/08/25 02:21:23;;;;;;;;;;;14.00;96.90;;;;;;5033635;28;19917;-75
2021/08/25 02:23:49;;;;;;;;;;;14.10;96.90;;;;;;5033413;28;19932;-77
2021/08/25 02:26:16;;;;;;;;;;;14.20;96.80;;;;;;5033456;28;19971;-76
2021/08/25 02:28:44;;;;;;;;;;;14.30;96.70;;;;;;5032860;28;19909;-77
2021/08/25 02:31:10;;;;;;;;;;;14.40;96.70;;;;;;5033358;28;19962;-76
2021/08/25 02:33:37;;;;;;;;;;;14.30;96.30;;;;;;5032966;28;19917;-76
2021/08/25 02:36:04;;;;;;;;;;;14.20;96.20;;;;;;5033257;28;20003;-75
2021/08/25 02:38:31;;;;;;;;;;;14.10;96.20;;;;;;5033067;28;19996;-76
2021/08/25 02:40:58;;;;;;;;;;;14.00;96.70;;;;;;5033179;28;20364;-76
2021/08/25 02:43:24;;;;;;;;;;;14.00;96.60;;;;;;5033328;28;19909;-76
2021/08/25 02:45:52;;;;;;;;;;;14.20;96.60;;;;;;5032596;28;20283;-76
2021/08/25 02:48:18;;;;;;;;;;;14.20;96.00;;;;;;5032566;28;19925;-76
2021/08/25 02:50:45;;;;;;;;;;;14.30;96.20;;;;;;5032922;28;19996;-75
2021/08/25 02:53:12;;;;;;;;;;;14.40;97.00;;;;;;5033053;28;19909;-74
2021/08/25 02:55:38;;;;;;;;;;;14.40;96.10;;;;;;5032969;28;19983;-75
2021/08/25 02:58:05;;;;;;;;;;;14.50;96.00;;;;;;5032803;28;19909;-75
2021/08/25 03:00:31;;;;;;;;;;;14.40;95.90;;;;;;5032859;28;20390;-75
2021/08/25 03:02:58;;;;;;;;;;;14.30;95.60;;;;;;5032666;28;19910;-75
2021/08/25 03:05:25;;;;;;;;;;;14.20;96.20;;;;;;5032783;28;20023;-75
2021/08/25 03:07:51;;;;;;;;;;;14.20;95.60;;;;;;5032683;28;19917;-74
2021/08/25 03:10:18;;;;;;;;;;;14.00;96.20;;;;;;5032720;28;20315;-75
2021/08/25 03:12:45;;;;;;;;;;;14.00;96.50;;;;;;5032533;28;19910;-75
2021/08/25 03:15:12;;;;;;;;;;;14.00;95.90;;;;;;5032605;28;19968;-76
2021/08/25 03:17:38;;;;;;;;;;;13.90;96.20;;;;;;5032443;28;19917;-77
2021/08/25 03:20:07;;;;;;;;;;;13.90;96.20;;;;;;5032772;28;19909;-76
2021/08/25 03:22:33;;;;;;;;;;;14.00;95.70;;;;;;5032859;28;20032;-76
2021/08/25 03:25:00;;;;;;;;;;;14.00;96.10;;;;;;5033064;28;19959;-78
2021/08/25 03:27:27;;;;;;;;;;;14.10;95.80;;;;;;5032472;28;20326;-78
2021/08/25 03:29:53;;;;;;;;;;;14.10;95.80;;;;;;5032561;28;20375;-77
2021/08/25 03:32:20;;;;;;;;;;;14.20;95.60;;;;;;5032976;28;19982;-77
2021/08/25 03:34:47;;;;;;;;;;;14.20;95.90;;;;;;5032687;28;19916;-77
2021/08/25 03:37:13;;;;;;;;;;;14.10;95.80;;;;;;5032660;28;19909;-77
2021/08/25 03:39:40;;;;;;;;;;;14.20;96.20;;;;;;5032468;28;19909;-77
2021/08/25 03:42:10;;;;;;;;;;;14.20;95.60;;;;;;5032548;28;20284;-77
2021/08/25 03:44:37;;;;;;;;;;;14.20;95.30;;;;;;5032654;28;20008;-77
2021/08/25 03:47:05;;;;;;;;;;;14.30;95.10;;;;;;5032352;28;19920;-77
2021/08/25 03:49:32;;;;;;;;;;;14.30;96.10;;;;;;5032788;28;19967;-76
2021/08/25 03:51:58;;;;;;;;;;;14.40;95.20;;;;;;5032799;28;19964;-77
2021/08/25 03:54:26;;;;;;;;;;;14.50;95.30;;;;;;5032694;28;19941;-77
2021/08/25 03:56:53;;;;;;;;;;;14.50;95.50;;;;;;5032097;28;19909;-78
2021/08/25 03:59:19;;;;;;;;;;;14.50;96.30;;;;;;5032811;28;19909;-77
2021/08/25 04:01:46;;;;;;;;;;;14.40;95.90;;;;;;5035581;28;20344;-77
2021/08/25 04:04:13;;;;;;;;;;;14.40;96.00;;;;;;5035597;28;20280;-77
2021/08/25 04:06:40;;;;;;;;;;;14.40;95.70;;;;;;5036339;28;20343;-76
2021/08/25 04:09:06;;;;;;;;;;;14.50;96.00;;;;;;5036229;28;20256;-77
2021/08/25 04:11:33;;;;;;;;;;;14.50;95.30;;;;;;5035648;28;19916;-78
2021/08/25 04:14:00;;;;;;;;;;;14.60;95.70;;;;;;5035920;28;20289;-78
2021/08/25 04:16:27;;;;;;;;;;;14.60;95.70;;;;;;5035906;28;19944;-78
2021/08/25 04:18:56;;;;;;;;;;;14.70;95.50;;;;;;5035863;28;20004;-77
2021/08/25 04:21:23;;;;;;;;;;;14.70;95.70;;;;;;5035916;28;20004;-78
2021/08/25 04:23:49;;;;;;;;;;;14.70;95.60;;;;;;5035953;28;19916;-77
2021/08/25 04:26:16;;;;;;;;;;;14.70;95.70;;;;;;5035434;28;19924;-77
2021/08/25 04:28:43;;;;;;;;;;;14.60;95.40;;;;;;5035794;28;19909;-77
2021/08/25 04:31:09;;;;;;;;;;;14.70;95.40;;;;;;5036049;28;19909;-77
2021/08/25 04:33:36;;;;;;;;;;;14.70;95.30;;;;;;5035420;28;19936;-77
2021/08/25 04:36:04;;;;;;;;;;;14.80;95.60;;;;;;5035594;28;20382;-78
2021/08/25 04:38:30;;;;;;;;;;;14.80;95.10;;;;;;5035396;28;19910;-78
2021/08/25 04:40:58;;;;;;;;;;;14.90;95.60;;;;;;5035410;28;19910;-78
2021/08/25 04:43:28;;;;;;;;;;;14.90;94.90;;;;;;5035577;28;19909;-77
2021/08/25 04:45:55;;;;;;;;;;;14.90;95.20;;;;;;5035296;28;19928;-77
2021/08/25 04:48:22;;;;;;;;;;;14.90;95.00;;;;;;5035031;28;19925;-78
2021/08/25 04:50:49;;;;;;;;;;;14.80;95.50;;;;;;5035844;28;20319;-77
2021/08/25 04:53:16;;;;;;;;;;;14.70;95.00;;;;;;5034147;28;19909;-77
2021/08/25 04:55:43;;;;;;;;;;;14.70;95.40;;;;;;5036053;28;20332;-77
2021/08/25 04:58:10;;;;;;;;;;;14.70;95.30;;;;;;5035602;28;19921;-77
2021/08/25 05:00:36;;;;;;;;;;;14.70;95.10;;;;;;5036321;28;20367;-78
2021/08/25 05:03:03;;;;;;;;;;;14.70;95.40;;;;;;5036704;28;19959;-76
2021/08/25 05:05:30;;;;;;;;;;;14.70;95.40;;;;;;5036603;28;19924;-76
2021/08/25 05:07:56;;;;;;;;;;;14.60;95.50;;;;;;5036840;28;19956;-75
2021/08/25 05:10:23;;;;;;;;;;;14.70;95.70;;;;;;5036803;28;19909;-76
2021/08/25 05:12:50;;;;;;;;;;;14.60;95.30;;;;;;5035610;28;19913;-76
2021/08/25 05:15:16;;;;;;;;;;;14.60;95.80;;;;;;5035478;28;20054;-76
2021/08/25 05:17:43;;;;;;;;;;;14.60;95.60;;;;;;5036381;28;19932;-77
2021/08/25 05:20:10;;;;;;;;;;;14.50;95.70;;;;;;5035604;28;20356;-77
2021/08/25 05:22:36;;;;;;;;;;;14.50;95.10;;;;;;5035813;28;19916;-75
2021/08/25 05:25:03;;;;;;;;;;;14.60;95.40;;;;;;5034932;28;19920;-77
2021/08/25 05:27:30;;;;;;;;;;;14.60;95.60;;;;;;5034570;28;19909;-75
2021/08/25 05:29:57;;;;;;;;;;;14.60;95.10;;;;;;5035078;28;20027;-75
2021/08/25 05:32:23;;;;;;;;;;;14.60;95.20;;;;;;5034905;28;19909;-75
2021/08/25 05:34:50;;;;;;;;;;;14.60;95.50;;;;;;5034800;28;19961;-77
2021/08/25 05:37:17;;;;;;;;;;;14.60;95.10;;;;;;5034587;28;20296;-75
2021/08/25 05:39:43;;;;;;;;;;;14.60;95.40;;;;;;5033763;28;19909;-77
2021/08/25 05:42:10;;;;;;;;;;;14.60;95.30;;;;;;5034298;28;19916;-76
2021/08/25 05:44:37;;;;;;;;;;;14.50;95.60;;;;;;5034459;28;19983;-79
2021/08/25 05:47:04;;;;;;;;;;;14.60;95.50;;;;;;5034061;28;19968;-76
2021/08/25 05:49:31;;;;;;;;;;;14.50;96.00;;;;;;5034301;28;19976;-76
2021/08/25 05:51:57;;;;;;;;;;;14.60;95.70;;;;;;5034341;28;19913;-76
2021/08/25 05:54:31;;;;;;;;;;;14.60;95.30;;;;;;5034483;28;19909;-77
2021/08/25 05:57:02;;;;;;;;;;;14.60;96.20;;;;;;5034658;28;19913;-76
2021/08/25 05:59:28;;;;;;;;;;;14.60;95.50;;;;;;5034873;28;19913;-76
2021/08/25 06:01:55;;;;;;;;;;;14.60;95.60;;;;;;5033929;28;20368;-76
2021/08/25 06:04:22;;;;;;;;;;;14.60;95.90;;;;;;5033848;28;19917;-76
2021/08/25 06:06:48;;;;;;;;;;;14.50;95.30;;;;;;5033758;28;20011;-77
2021/08/25 06:09:15;;;;;;;;;;;14.50;95.70;;;;;;5033946;28;19916;-76
2021/08/25 06:11:42;;;;;;;;;;;14.50;95.40;;;;;;5033360;28;19920;-76
2021/08/25 06:14:08;;;;;;;;;;;14.50;95.20;;;;;;5033697;28;19909;-77
2021/08/25 06:16:35;;;;;;;;;;;14.60;95.40;;;;;;5033755;28;19909;-77
2021/08/25 06:19:02;;;;;;;;;;;14.60;95.20;;;;;;5032491;28;19943;-78
2021/08/25 06:21:28;;;;;;;;;;;14.60;95.40;;;;;;5033476;28;19909;-77
2021/08/25 06:23:55;;;;;;;;;;;14.60;95.40;;;;;;5033060;28;19909;-77
2021/08/25 06:26:22;;;;;;;;;;;14.60;95.30;;;;;;5033336;28;19921;-77
2021/08/25 06:28:48;;;;;;;;;;;14.60;95.70;;;;;;5033616;28;19937;-77
2021/08/25 06:31:15;;;;;;;;;;;14.50;96.30;;;;;;5033576;28;19936;-77
2021/08/25 06:33:42;;;;;;;;;;;14.50;95.70;;;;;;5033366;28;20276;-77
2021/08/25 06:36:08;;;;;;;;;;;14.60;95.60;;;;;;5033412;28;19931;-77
2021/08/25 06:38:35;;;;;;;;;;;14.60;95.10;;;;;;5036242;28;19909;-77
2021/08/25 06:41:02;;;;;;;;;;;14.60;94.70;;;;;;5035102;28;19984;-77
2021/08/25 06:43:28;;;;;;;;;;;14.70;94.80;;;;;;5035458;28;20287;-77
2021/08/25 06:45:55;;;;;;;;;;;14.60;95.00;;;;;;5033529;28;19917;-77
2021/08/25 06:48:22;;;;;;;;;;;14.60;95.10;;;;;;5032857;28;19980;-76
2021/08/25 06:50:48;;;;;;;;;;;14.60;94.90;;;;;;5031410;28;20288;-77
2021/08/25 06:53:15;;;;;;;;;;;14.60;94.70;;;;;;5030963;28;19952;-77
2021/08/25 06:55:42;;;;;;;;;;;14.60;94.80;;;;;;5029806;28;19913;-75
2021/08/25 06:58:08;;;;;;;;;;;14.60;94.50;;;;;;5030502;28;19940;-76
2021/08/25 07:00:35;;;;;;;;;;;14.60;94.60;;;;;;5029972;28;20022;-76
2021/08/25 07:03:02;;;;;;;;;;;14.60;94.60;;;;;;5030709;28;19917;-75
2021/08/25 07:05:28;;;;;;;;;;;14.60;94.40;;;;;;5031627;28;19921;-76
2021/08/25 07:07:55;;;;;;;;;;;14.60;94.60;;;;;;5029707;28;19915;-77
2021/08/25 07:10:22;;;;;;;;;;;14.50;94.50;;;;;;5030425;28;20376;-76
2021/08/25 07:12:49;;;;;;;;;;;14.60;94.50;;;;;;5030321;28;19995;-76
2021/08/25 07:15:17;;;;;;;;;;;14.60;95.00;;;;;;5030031;28;19916;-76
2021/08/25 07:17:45;;;;;;;;;;;14.50;94.70;;;;;;5029655;28;19956;-75
2021/08/25 07:20:12;;;;;;;;;;;14.50;94.70;;;;;;5030915;28;19913;-75
2021/08/25 07:22:39;;;;;;;;;;;14.50;94.90;;;;;;5030717;28;19909;-75
2021/08/25 07:25:07;;;;;;;;;;;14.50;94.60;;;;;;5031026;28;19968;-76
2021/08/25 07:27:35;;;;;;;;;;;14.50;95.00;;;;;;5029743;28;20339;-76
2021/08/25 07:30:02;;;;;;;;;;;14.40;95.20;;;;;;5029369;28;20343;-76
2021/08/25 07:32:29;;;;;;;;;;;14.40;95.00;;;;;;5027990;28;19913;-74
2021/08/25 07:34:56;;;;;;;;;;;14.40;95.00;;;;;;5028781;28;20412;-76
2021/08/25 07:37:22;;;;;;;;;;;14.30;95.20;;;;;;5029964;28;20355;-76
2021/08/25 07:39:49;;;;;;;;;;;14.30;95.70;;;;;;5029052;28;19996;-75
2021/08/25 07:42:16;;;;;;;;;;;14.30;95.30;;;;;;5029877;28;19917;-75
2021/08/25 07:44:43;;;;;;;;;;;14.30;95.10;;;;;;5029477;28;19921;-74
2021/08/25 07:47:09;;;;;;;;;;;14.30;95.20;;;;;;4906966;28;3557766;-76
2021/08/25 07:49:36;;;;;;;;;;;14.20;95.30;;;;;;5030128;28;19941;-76
2021/08/25 07:52:03;;;;;;;;;;;14.20;95.30;;;;;;5030372;28;19913;-76
2021/08/25 07:54:30;;;;;;;;;;;14.10;95.20;;;;;;5030178;28;20320;-76
2021/08/25 07:56:57;;;;;;;;;;;14.10;95.40;;;;;;5029702;28;19909;-76
2021/08/25 07:59:24;;;;;;;;;;;14.00;95.50;;;;;;5027836;28;19960;-76
2021/08/25 08:01:50;;;;;;;;;;;13.90;96.20;;;;;;5029753;28;20402;-76
2021/08/25 08:04:17;;;;;;;;;;;13.90;96.50;;;;;;5028958;28;20028;-76
2021/08/25 08:06:44;;;;;;;;;;;13.90;96.80;;;;;;5030340;28;19921;-76
2021/08/25 08:09:10;;;;;;;;;;;13.80;96.70;;;;;;5029664;28;20348;-76
2021/08/25 08:11:37;;;;;;;;;;;13.90;95.80;;;;;;5029518;28;19909;-76
2021/08/25 08:14:05;;;;;;;;;;;13.90;95.70;;;;;;5030160;28;20011;-76
2021/08/25 08:16:34;;;;;;;;;;;14.00;95.80;;;;;;5030173;28;19913;-76
2021/08/25 08:19:03;;;;;;;;;;;14.00;95.80;;;;;;5029884;28;19917;-75
2021/08/25 08:21:30;;;;;;;;;;;14.00;95.80;;;;;;5029646;28;20509;-75
2021/08/25 08:23:58;;;;;;;;;;;14.00;95.40;;;;;;5029638;28;19921;-75
2021/08/25 08:26:28;;;;;;;;;;;14.10;95.60;;;;;;5029870;28;19925;-76
2021/08/25 08:28:56;;;;;;;;;;;14.10;95.80;;;;;;5030148;28;19995;-75
2021/08/25 08:31:22;;;;;;;;;;;14.10;95.80;;;;;;5029975;28;20344;-76
2021/08/25 08:33:49;;;;;;;;;;;14.00;95.70;;;;;;5029720;28;19956;-77
2021/08/25 08:36:16;;;;;;;;;;;14.00;96.00;;;;;;5029601;28;19909;-76
2021/08/25 08:38:42;;;;;;;;;;;14.00;96.30;;;;;;5031710;28;19919;-76
2021/08/25 08:41:16;;;;;;;;;;;14.00;96.00;;;;;;5032916;28;19913;-77
2021/08/25 08:43:49;;;;;;;;;;;14.00;95.60;;;;;;5031978;28;20004;-75
2021/08/25 08:46:16;;;;;;;;;;;14.00;96.20;;;;;;5034041;28;20292;-76
2021/08/25 08:48:43;;;;;;;;;;;14.00;96.50;;;;;;5036535;28;19926;-77
2021/08/25 08:51:10;;;;;;;;;;;13.90;96.60;;;;;;5035309;28;19988;-77
2021/08/25 08:53:37;;;;;;;;;;;13.90;96.40;;;;;;5037742;28;20352;-75
2021/08/25 08:56:04;;;;;;;;;;;13.90;96.30;;;;;;5036863;28;19909;-75
2021/08/25 08:58:31;;;;;;;;;;;13.90;96.20;;;;;;5035799;28;20004;-75
2021/08/25 09:00:58;;;;;;;;;;;13.90;96.30;;;;;;5036226;28;19920;-76
2021/08/25 09:03:32;;;;;;;;;;;13.90;95.80;;;;;;5036417;28;19969;-76
2021/08/25 09:06:01;;;;;;;;;;;13.90;96.40;;;;;;5038742;28;19960;-77
2021/08/25 09:08:33;;;;;;;;;;;14.00;95.80;;;;;;5039155;28;19913;-76
2021/08/25 09:11:08;;;;;;;;;;;13.90;95.80;;;;;;5035911;28;19917;-77
2021/08/25 09:13:36;;;;;;;;;;;13.90;95.70;;;;;;5035624;28;20012;-77
2021/08/25 09:16:03;;;;;;;;;;;13.90;95.80;;;;;;5035577;28;19996;-78
2021/08/25 09:18:30;;;;;;;;;;;13.90;96.40;;;;;;5035414;28;19996;-77
2021/08/25 09:20:57;;;;;;;;;;;13.70;95.90;;;;;;5035435;28;20264;-77
2021/08/25 09:23:25;;;;;;;;;;;13.70;96.70;;;;;;5035292;28;20360;-76
2021/08/25 09:25:53;;;;;;;;;;;13.70;96.10;;;;;;5035007;28;20019;-76
2021/08/25 09:28:27;;;;;;;;;;;13.70;96.30;;;;;;5035324;28;19917;-77
2021/08/25 09:30:53;;;;;;;;;;;13.70;96.60;;;;;;5035541;28;20360;-77
2021/08/25 09:33:24;;;;;;;;;;;13.70;97.20;;;;;;5066746;28;19909;-77
2021/08/25 09:35:53;;;;;;;;;;;13.60;97.00;;;;;;5034601;28;19913;-77
2021/08/25 09:38:20;;;;;;;;;;;13.50;97.60;;;;;;5034741;28;19910;-77
2021/08/25 09:40:49;;;;;;;;;;;13.50;97.10;;;;;;5034979;28;19916;-77
2021/08/25 09:43:35;;;;;;;;;;;13.40;97.70;;;;;;5034760;28;19909;-76
2021/08/25 09:46:12;;;;;;;;;;;13.40;97.30;;;;;;5035911;28;20382;-76
2021/08/25 09:48:43;;;;;;;;;;;13.50;97.00;;;;;;5035049;28;19921;-76
2021/08/25 09:51:11;;;;;;;;;;;13.50;97.50;;;;;;5036061;28;19998;-76
2021/08/25 09:53:37;;;;;;;;;;;13.50;97.30;;;;;;5034494;28;19909;-76
2021/08/25 09:56:27;;;;;;;;;;;13.40;97.70;;;;;;5034828;28;20325;-76
2021/08/25 09:58:55;;;;;;;;;;;13.40;97.20;;;;;;5035954;28;19909;-76
2021/08/25 10:01:22;;;;;;;;;;;13.30;97.60;;;;;;5034430;28;19959;-77
2021/08/25 10:03:48;;;;;;;;;;;13.30;97.50;;;;;;5034265;28;19909;-76
2021/08/25 10:06:16;;;;;;;;;;;13.30;97.40;;;;;;5033782;28;19924;-77
2021/08/25 10:08:43;;;;;;;;;;;13.20;97.70;;;;;;5034348;28;20364;-76
2021/08/25 10:11:10;;;;;;;;;;;13.10;98.00;;;;;;5034054;28;20410;-76
2021/08/25 10:13:37;;;;;;;;;;;13.10;97.40;;;;;;5033887;28;19963;-77
2021/08/25 10:16:04;;;;;;;;;;;13.20;98.10;;;;;;5032727;28;19916;-77
2021/08/25 10:18:37;;;;;;;;;;;13.20;97.60;;;;;;5033827;28;19909;-76
2021/08/25 10:21:24;;;;;;;;;;;13.20;97.80;;;;;;5033860;28;19909;-76
2021/08/25 10:23:56;;;;;;;;;;;13.20;97.60;;;;;;5033378;28;19913;-77
2021/08/25 10:26:23;;;;;;;;;;;13.20;98.00;;;;;;5033738;28;19917;-77
2021/08/25 10:28:59;;;;;;;;;;;13.20;97.60;;;;;;5033968;28;20375;-77
2021/08/25 10:31:44;;;;;;;;;;;13.20;97.30;;;;;;5033766;28;19996;-76
2021/08/25 10:34:12;;;;;;;;;;;13.30;97.00;;;;;;5033870;28;19909;-76
2021/08/25 10:36:39;;;;;;;;;;;13.30;97.40;;;;;;5036196;28;19924;-76
2021/08/25 10:39:26;;;;;;;;;;;13.30;97.10;;;;;;5034182;28;19951;-77
2021/08/25 10:41:52;;;;;;;;;;;13.30;97.10;;;;;;5034894;28;19913;-76
2021/08/25 10:44:37;;;;;;;;;;;13.30;97.20;;;;;;5035417;28;20312;-77
2021/08/25 10:47:05;;;;;;;;;;;13.20;97.40;;;;;;5036316;28;19913;-77
2021/08/25 10:49:32;;;;;;;;;;;13.10;97.50;;;;;;5036037;28;20304;-77
2021/08/25 10:52:14;;;;;;;;;;;13.00;97.90;;;;;;5036978;28;20338;-77
2021/08/25 10:54:48;;;;;;;;;;;13.00;97.80;;;;;;5035132;28;20306;-78
2021/08/25 10:57:19;;;;;;;;;;;12.90;98.30;;;;;;5035699;28;19920;-75
2021/08/25 10:59:49;;;;;;;;;;;13.00;98.30;;;;;;5034698;28;20355;-77
2021/08/25 11:02:17;;;;;;;;;;;12.90;97.80;;;;;;5035270;28;20336;-78
2021/08/25 11:04:44;;;;;;;;;;;12.90;98.10;;;;;;5033316;28;19924;-76
2021/08/25 11:07:13;;;;;;;;;;;12.80;98.20;;;;;;5036416;28;20007;-77
2021/08/25 11:09:50;;;;;;;;;;;12.90;98.00;;;;;;5034587;28;19981;-77
2021/08/25 11:12:19;;;;;;;;;;;12.90;97.90;;;;;;5034010;28;19913;-77
2021/08/25 11:14:48;;;;;;;;;;;12.90;97.90;;;;;;5050111;28;19909;-77
2021/08/25 11:17:17;;;;;;;;;;;13.00;98.00;;;;;;5035534;28;19976;-76
2021/08/25 11:19:59;;;;;;;;;;;13.00;97.80;;;;;;5035372;28;19909;-77
2021/08/25 11:22:31;;;;;;;;;;;12.90;98.00;;;;;;5050586;28;19913;-75
2021/08/25 11:25:03;;;;;;;;;;;12.90;97.90;;;;;;5034491;28;19920;-77
2021/08/25 11:27:30;;;;;;;;;;;12.80;98.80;;;;;;5033305;28;20007;-76
2021/08/25 11:30:16;;;;;;;;;;;12.80;98.20;;;;;;5034553;28;19924;-77
2021/08/25 11:32:50;;;;;;;;;;;12.70;99.00;;;;;;5034168;28;19909;-77
2021/08/25 11:35:37;;;;;;;;;;;12.70;99.20;;;;;;5049160;28;19932;-77
2021/08/25 11:38:08;;;;;;;;;;;12.60;99.40;;;;;;5032478;28;19919;-77
2021/08/25 11:40:39;;;;;;;;;;;12.60;99.20;;;;;;5032300;28;19986;-77
2021/08/25 11:43:10;;;;;;;;;;;12.50;99.50;;;;;;5030983;28;19920;-77
2021/08/25 11:45:37;;;;;;;;;;;12.40;99.40;;;;;;5030522;28;19917;-78
2021/08/25 11:48:05;;;;;;;;;;;12.40;99.00;;;;;;5030669;28;19921;-77
2021/08/25 11:50:33;;;;;;;;;;;12.30;99.60;;;;;;5030927;28;19963;-77
2021/08/25 11:53:01;;;;;;;;;;;12.30;99.90;;;;;;5030726;28;20386;-78
2021/08/25 11:55:28;;;;;;;;;;;12.30;99.60;;;;;;5030482;28;19959;-77
2021/08/25 11:57:56;;;;;;;;;;;12.20;99.70;;;;;;5030028;28;20375;-77
2021/08/25 12:00:41;;;;;;;;;;;12.20;99.90;;;;;;5030214;28;20240;-77
2021/08/25 12:03:08;;;;;;;;;;;12.20;99.80;;;;;;5030330;28;19909;-77
2021/08/25 12:05:39;;;;;;;;;;;12.10;99.90;;;;;;5029998;28;19917;-76
2021/08/25 12:08:07;;;;;;;;;;;12.10;99.90;;;;;;5030429;28;20006;-78
2021/08/25 12:10:35;;;;;;;;;;;12.10;99.90;;;;;;5030133;28;19963;-77
2021/08/25 12:13:02;;;;;;;;;;;12.10;99.70;;;;;;5030566;28;19944;-77
2021/08/25 12:15:45;;;;;;;;;;;12.10;99.90;;;;;;5030133;28;19955;-77
2021/08/25 12:18:12;;;;;;;;;;;12.10;99.90;;;;;;5030369;28;19916;-76
2021/08/25 12:20:42;;;;;;;;;;;12.00;99.60;;;;;;5031441;28;20328;-77
2021/08/25 12:23:11;;;;;;;;;;;12.00;99.90;;;;;;5034157;28;19916;-77
2021/08/25 12:25:44;;;;;;;;;;;12.00;99.90;;;;;;5033206;28;19921;-76
2021/08/25 12:28:15;;;;;;;;;;;12.00;99.90;;;;;;5034057;28;19909;-76
2021/08/25 12:30:43;;;;;;;;;;;12.00;99.90;;;;;;5034204;28;19909;-77
2021/08/25 12:33:12;;;;;;;;;;;12.00;99.90;;;;;;5033486;28;19916;-77
2021/08/25 12:35:39;;;;;;;;;;;12.00;99.90;;;;;;5033931;28;19915;-77
2021/08/25 12:38:06;;;;;;;;;;;12.00;99.90;;;;;;5034728;28;20064;-78
2021/08/25 12:40:33;;;;;;;;;;;11.90;99.90;;;;;;5033136;28;19999;-77
2021/08/25 12:43:01;;;;;;;;;;;11.90;99.90;;;;;;5065893;28;19909;-77
2021/08/25 12:45:27;;;;;;;;;;;11.90;99.90;;;;;;5033036;28;19931;-76
2021/08/25 12:47:56;;;;;;;;;;;11.90;99.90;;;;;;5033015;28;19917;-76
2021/08/25 12:50:24;;;;;;;;;;;11.90;99.90;;;;;;5033523;28;19917;-76
2021/08/25 12:52:51;;;;;;;;;;;11.90;99.90;;;;;;5033394;28;19996;-77
2021/08/25 12:55:17;;;;;;;;;;;11.90;99.90;;;;;;5032804;28;19913;-77
2021/08/25 12:57:44;;;;;;;;;;;11.80;99.90;;;;;;5034081;28;19916;-77
2021/08/25 13:00:11;;;;;;;;;;;11.80;99.90;;;;;;5033538;28;20335;-78
2021/08/25 13:02:41;;;;;;;;;;;11.80;99.90;;;;;;5034489;28;20020;-78
2021/08/25 13:05:10;;;;;;;;;;;11.80;99.90;;;;;;5033532;28;19917;-78
2021/08/25 13:07:37;;;;;;;;;;;11.80;99.90;;;;;;5033012;28;20016;-76
2021/08/25 13:10:04;;;;;;;;;;;11.80;99.90;;;;;;5032610;28;19909;-76
2021/08/25 13:12:30;;;;;;;;;;;11.80;99.90;;;;;;5032962;28;19963;-76
2021/08/25 13:14:57;;;;;;;;;;;11.80;99.90;;;;;;5033657;28;19909;-76
2021/08/25 13:17:24;;;;;;;;;;;11.70;99.90;;;;;;5033131;28;19955;-76
2021/08/25 13:19:50;;;;;;;;;;;11.70;99.90;;;;;;5032842;28;20016;-75
2021/08/25 13:22:17;;;;;;;;;;;11.80;99.90;;;;;;5033668;28;19975;-76
2021/08/25 13:24:44;;;;;;;;;;;11.70;99.90;;;;;;5033248;28;19917;-77
2021/08/25 13:27:10;;;;;;;;;;;11.70;99.90;;;;;;5033379;28;19913;-77
2021/08/25 13:29:37;;;;;;;;;;;11.80;99.90;;;;;;5032764;28;19909;-77
2021/08/25 13:32:04;;;;;;;;;;;11.80;99.90;;;;;;5033742;28;19916;-76
2021/08/25 13:34:30;;;;;;;;;;;11.70;99.90;;;;;;5050385;28;20382;-77
2021/08/25 13:36:57;;;;;;;;;;;11.70;99.90;;;;;;5034717;28;20012;-77
2021/08/25 13:39:24;;;;;;;;;;;11.70;99.90;;;;;;5033229;28;19994;-75
2021/08/25 13:41:50;;;;;;;;;;;11.70;99.90;;;;;;5033935;28;19913;-76
2021/08/25 13:44:17;;;;;;;;;;;11.70;99.90;;;;;;5033354;28;19958;-76
2021/08/25 13:46:44;;;;;;;;;;;11.70;99.90;;;;;;5033340;28;19921;-76
2021/08/25 13:49:10;;;;;;;;;;;11.60;99.90;;;;;;5034698;28;19928;-76
2021/08/25 13:51:37;;;;;;;;;;;11.60;99.90;;;;;;5035699;28;19921;-76
2021/08/25 13:54:04;;;;;;;;;;;11.60;99.90;;;;;;5035426;28;19915;-76
2021/08/25 13:56:30;;;;;;;;;;;11.60;99.90;;;;;;5035546;28;19909;-76
2021/08/25 13:58:57;;;;;;;;;;;11.60;99.90;;;;;;5034929;28;20273;-77
2021/08/25 14:01:23;;;;;;;;;;;11.50;99.90;;;;;;5034167;28;19913;-77
2021/08/25 14:03:51;;;;;;;;;;;11.50;99.90;;;;;;5032823;28;19913;-78
2021/08/25 14:06:17;;;;;;;;;;;11.50;99.90;;;;;;5034437;28;19921;-79
2021/08/25 14:08:44;;;;;;;;;;;11.50;99.90;;;;;;5034395;28;19956;-78
2021/08/25 14:11:14;;;;;;;;;;;11.60;99.90;;;;;;5035685;28;19913;-77
2021/08/25 14:13:41;;;;;;;;;;;11.60;99.90;;;;;;5036166;28;20397;-74
2021/08/25 14:16:07;;;;;;;;;;;11.60;99.90;;;;;;5036096;28;20007;-74
2021/08/25 14:18:34;;;;;;;;;;;11.60;99.90;;;;;;5032858;28;19913;-75
2021/08/25 14:21:02;;;;;;;;;;;11.50;99.90;;;;;;5032809;28;19916;-75